createdAt,value
2019-05-19T00:00:54.788Z,12.19
2019-05-19T00:01:59.841Z,12.23
2019-05-19T00:03:04.431Z,12.27
2019-05-19T00:04:09.541Z,12.19
2019-05-19T00:05:14.038Z,12.16
2019-05-19T00:06:19.087Z,12.14
2019-05-19T00:07:23.510Z,12.14
2019-05-19T00:08:28.516Z,12.11
2019-05-19T00:09:32.943Z,12.17
2019-05-19T00:10:38.010Z,12.17
2019-05-19T00:11:42.427Z,12.09
2019-05-19T00:12:47.408Z,12.12
2019-05-19T00:13:51.918Z,12.15
2019-05-19T00:14:58.229Z,12.19
2019-05-19T00:16:02.877Z,12.19
2019-05-19T00:17:07.970Z,12.19
2019-05-19T00:18:12.551Z,12.18
2019-05-19T00:19:26.392Z,12.19
2019-05-19T00:20:23.725Z,12.15
2019-05-19T00:21:28.974Z,12.16
2019-05-19T00:22:33.779Z,12.14
2019-05-19T00:23:38.851Z,12.15
2019-05-19T00:24:43.626Z,12.15
2019-05-19T00:25:48.701Z,12.22
2019-05-19T00:26:53.569Z,12.23
2019-05-19T00:27:58.560Z,12.26
2019-05-19T00:29:03.515Z,12.28
2019-05-19T00:30:09.503Z,12.30
2019-05-19T00:31:14.002Z,12.29
2019-05-19T00:32:19.056Z,12.26
2019-05-19T00:33:23.937Z,12.24
2019-05-19T00:34:28.914Z,12.22
2019-05-19T00:35:33.716Z,12.14
2019-05-19T00:36:38.689Z,12.15
2019-05-19T00:37:43.407Z,12.18
2019-05-19T00:38:48.402Z,12.16
2019-05-19T00:39:52.900Z,12.17
2019-05-19T00:40:58.171Z,12.18
2019-05-19T00:42:02.587Z,12.18
2019-05-19T00:43:07.633Z,12.16
2019-05-19T00:44:12.530Z,12.17
2019-05-19T00:45:18.098Z,12.19
2019-05-19T00:46:23.089Z,12.16
2019-05-19T00:47:28.073Z,12.14
2019-05-19T00:48:32.938Z,12.15
2019-05-19T00:49:41.586Z,12.25
2019-05-19T00:50:45.691Z,12.41
2019-05-19T00:51:50.741Z,12.60
2019-05-19T00:52:55.298Z,12.60
2019-05-19T00:54:00.303Z,12.60
2019-05-19T00:55:08.582Z,12.60
2019-05-19T00:56:14.255Z,12.61
2019-05-19T00:57:19.553Z,12.59
2019-05-19T00:58:27.127Z,12.56
2019-05-19T00:59:31.890Z,12.51
2019-05-19T01:00:37.101Z,12.47
2019-05-19T01:01:41.523Z,12.48
2019-05-19T01:02:46.505Z,12.42
2019-05-19T01:03:50.960Z,12.41
2019-05-19T01:04:57.004Z,12.48
2019-05-19T01:06:01.451Z,12.49
2019-05-19T01:07:06.570Z,12.50
2019-05-19T01:08:10.988Z,12.49
2019-05-19T01:09:16.148Z,12.50
2019-05-19T01:10:20.773Z,12.45
2019-05-19T01:11:25.752Z,12.47
2019-05-19T01:12:30.550Z,12.48
2019-05-19T01:13:35.639Z,12.46
2019-05-19T01:14:40.056Z,12.45
2019-05-19T01:15:45.168Z,12.45
2019-05-19T01:16:49.562Z,12.44
2019-05-19T01:17:54.539Z,12.40
2019-05-19T01:18:59.001Z,12.39
2019-05-19T01:20:05.415Z,12.36
2019-05-19T01:21:10.118Z,12.29
2019-05-19T01:22:15.666Z,12.23
2019-05-19T01:23:20.229Z,12.18
2019-05-19T01:24:25.204Z,12.14
2019-05-19T01:25:30.121Z,12.11
2019-05-19T01:26:35.129Z,12.06
2019-05-19T01:27:39.972Z,12.06
2019-05-19T01:28:45.296Z,11.97
2019-05-19T01:29:49.710Z,11.93
2019-05-19T01:30:54.688Z,11.92
2019-05-19T01:32:00.163Z,11.84
2019-05-19T01:33:05.181Z,11.79
2019-05-19T01:34:09.602Z,11.68
2019-05-19T01:35:14.736Z,11.54
2019-05-19T01:36:19.155Z,11.49
2019-05-19T01:37:24.176Z,11.42
2019-05-19T01:38:28.587Z,11.43
2019-05-19T01:39:33.920Z,11.38
2019-05-19T01:40:39.446Z,11.37
2019-05-19T01:41:44.422Z,11.34
2019-05-19T01:42:48.844Z,11.20
2019-05-19T01:43:53.821Z,11.17
2019-05-19T01:44:58.311Z,11.18
2019-05-19T01:46:03.400Z,11.17
2019-05-19T01:47:07.968Z,11.07
2019-05-19T01:48:12.939Z,11.07
2019-05-19T01:49:17.900Z,11.11
2019-05-19T01:50:24.354Z,11.21
2019-05-19T01:51:28.778Z,11.19
2019-05-19T01:52:33.756Z,11.10
2019-05-19T01:53:38.217Z,11.16
2019-05-19T01:54:43.555Z,11.20
2019-05-19T01:55:48.021Z,11.18
2019-05-19T01:56:53.064Z,11.20
2019-05-19T01:57:57.555Z,11.22
2019-05-19T01:59:02.547Z,11.20
2019-05-19T02:00:09.141Z,11.21
2019-05-19T02:01:14.190Z,11.23
2019-05-19T02:02:18.654Z,11.25
2019-05-19T02:03:24.038Z,11.24
2019-05-19T02:04:28.453Z,11.25
2019-05-19T02:05:33.498Z,11.29
2019-05-19T02:06:38.035Z,11.27
2019-05-19T02:07:43.090Z,11.23
2019-05-19T02:08:47.528Z,11.18
2019-05-19T02:09:52.730Z,11.15
2019-05-19T02:10:57.195Z,11.14
2019-05-19T02:12:03.228Z,11.05
2019-05-19T02:13:08.892Z,10.99
2019-05-19T02:14:14.281Z,10.95
2019-05-19T02:15:19.642Z,10.89
2019-05-19T02:16:25.088Z,10.94
2019-05-19T02:17:29.514Z,10.93
2019-05-19T02:18:34.528Z,10.92
2019-05-19T02:19:39.342Z,10.85
2019-05-19T02:20:45.917Z,10.88
2019-05-19T02:21:50.526Z,10.88
2019-05-19T02:22:55.497Z,10.82
2019-05-19T02:23:59.965Z,10.76
2019-05-19T02:25:05.801Z,10.78
2019-05-19T02:26:10.226Z,10.70
2019-05-19T02:27:15.265Z,10.67
2019-05-19T02:28:19.729Z,10.74
2019-05-19T02:29:24.822Z,10.84
2019-05-19T02:30:29.241Z,10.85
2019-05-19T02:31:34.225Z,10.81
2019-05-19T02:32:39.122Z,10.84
2019-05-19T02:33:44.246Z,10.84
2019-05-19T02:34:48.771Z,10.82
2019-05-19T02:35:54.050Z,10.87
2019-05-19T02:36:58.509Z,10.87
2019-05-19T02:38:03.628Z,10.87
2019-05-19T02:39:08.156Z,10.86
2019-05-19T02:40:13.372Z,10.84
2019-05-19T02:41:20.647Z,10.83
2019-05-19T02:42:28.967Z,10.78
2019-05-19T02:43:34.841Z,10.76
2019-05-19T02:44:40.354Z,10.76
2019-05-19T02:45:45.716Z,10.74
2019-05-19T02:46:52.905Z,10.73
2019-05-19T02:47:59.191Z,10.71
2019-05-19T02:49:04.990Z,10.70
2019-05-19T02:50:10.359Z,10.69
2019-05-19T02:51:17.405Z,10.69
2019-05-19T02:52:23.170Z,10.68
2019-05-19T02:53:29.855Z,10.66
2019-05-19T02:54:36.183Z,10.66
2019-05-19T02:55:41.901Z,10.66
2019-05-19T02:56:48.468Z,10.63
2019-05-19T02:57:54.590Z,10.61
2019-05-19T02:59:00.537Z,10.60
2019-05-19T03:00:09.849Z,10.67
2019-05-19T03:01:14.367Z,10.68
2019-05-19T03:02:19.731Z,10.72
2019-05-19T03:03:24.152Z,10.75
2019-05-19T03:04:29.130Z,10.76
2019-05-19T03:05:33.914Z,10.75
2019-05-19T03:06:38.980Z,10.69
2019-05-19T03:07:43.395Z,10.62
2019-05-19T03:08:48.381Z,10.60
2019-05-19T03:09:53.179Z,10.61
2019-05-19T03:10:58.165Z,10.68
2019-05-19T03:12:02.625Z,10.69
2019-05-19T03:13:07.663Z,10.71
2019-05-19T03:14:12.448Z,10.79
2019-05-19T03:15:17.584Z,10.80
2019-05-19T03:16:22.026Z,10.84
2019-05-19T03:17:27.043Z,10.85
2019-05-19T03:18:31.460Z,10.82
2019-05-19T03:19:36.451Z,10.84
2019-05-19T03:20:41.147Z,10.80
2019-05-19T03:21:46.178Z,10.84
2019-05-19T03:22:50.903Z,10.86
2019-05-19T03:23:55.877Z,10.83
2019-05-19T03:25:01.664Z,10.82
2019-05-19T03:26:06.746Z,10.88
2019-05-19T03:27:11.170Z,10.86
2019-05-19T03:28:16.233Z,10.87
2019-05-19T03:29:25.229Z,10.88
2019-05-19T03:30:34.019Z,10.90
2019-05-19T03:31:56.267Z,10.91
2019-05-19T03:33:05.005Z,10.92
2019-05-19T03:34:10.023Z,10.91
2019-05-19T03:35:14.446Z,10.95
2019-05-19T03:36:19.579Z,10.97
2019-05-19T03:37:24.009Z,10.98
2019-05-19T03:38:29.360Z,11.02
2019-05-19T03:39:33.825Z,10.96
2019-05-19T03:40:38.803Z,10.97
2019-05-19T03:41:43.553Z,10.96
2019-05-19T03:42:50.073Z,11.04
2019-05-19T03:43:54.758Z,11.11
2019-05-19T03:44:59.788Z,11.10
2019-05-19T03:46:04.283Z,11.09
2019-05-19T03:47:09.816Z,11.10
2019-05-19T03:48:15.316Z,11.18
2019-05-19T03:49:20.334Z,11.26
2019-05-19T03:50:24.932Z,11.17
2019-05-19T03:51:31.555Z,11.22
2019-05-19T03:52:36.081Z,11.33
2019-05-19T03:53:41.090Z,11.30
2019-05-19T03:54:45.505Z,11.30
2019-05-19T03:55:50.568Z,11.28
2019-05-19T03:56:55.095Z,11.31
2019-05-19T03:58:00.139Z,11.35
2019-05-19T03:59:04.701Z,11.25
2019-05-19T04:00:12.772Z,11.37
2019-05-19T04:01:17.562Z,11.40
2019-05-19T04:02:22.581Z,11.46
2019-05-19T04:03:27.312Z,11.51
2019-05-19T04:04:32.291Z,11.57
2019-05-19T04:05:36.717Z,11.61
2019-05-19T04:06:41.696Z,11.57
2019-05-19T04:07:46.171Z,11.62
2019-05-19T04:08:51.521Z,11.76
2019-05-19T04:09:55.943Z,11.86
2019-05-19T04:11:01.258Z,11.98
2019-05-19T04:12:05.754Z,12.01
2019-05-19T04:13:10.875Z,12.05
2019-05-19T04:14:15.308Z,12.14
2019-05-19T04:15:20.378Z,12.22
2019-05-19T04:16:25.766Z,12.28
2019-05-19T04:17:31.098Z,12.22
2019-05-19T04:18:35.526Z,12.23
2019-05-19T04:19:40.498Z,12.38
2019-05-19T04:20:44.919Z,12.50
2019-05-19T04:21:49.992Z,12.56
2019-05-19T04:22:54.518Z,12.65
2019-05-19T04:23:59.494Z,12.69
2019-05-19T04:25:04.463Z,12.78
2019-05-19T04:26:09.482Z,12.87
2019-05-19T04:27:13.906Z,12.92
2019-05-19T04:28:19.221Z,13.01
2019-05-19T04:29:23.687Z,13.07
2019-05-19T04:30:28.673Z,13.16
2019-05-19T04:31:33.455Z,13.23
2019-05-19T04:32:38.537Z,13.26
2019-05-19T04:33:42.972Z,13.29
2019-05-19T04:34:48.029Z,13.34
2019-05-19T04:35:52.465Z,13.34
2019-05-19T04:36:57.470Z,13.23
2019-05-19T04:38:01.891Z,13.35
2019-05-19T04:39:07.516Z,13.47
2019-05-19T04:40:12.582Z,13.46
2019-05-19T04:41:17.579Z,13.56
2019-05-19T04:42:22.381Z,13.65
2019-05-19T04:43:27.390Z,13.56
2019-05-19T04:44:33.230Z,13.62
2019-05-19T04:45:38.347Z,13.67
2019-05-19T04:46:42.776Z,13.64
2019-05-19T04:47:48.096Z,13.67
2019-05-19T04:48:52.563Z,13.82
2019-05-19T04:49:57.608Z,13.83
2019-05-19T04:51:02.033Z,13.91
2019-05-19T04:52:07.616Z,13.94
2019-05-19T04:53:12.386Z,13.88
2019-05-19T04:54:17.488Z,13.92
2019-05-19T04:55:21.977Z,13.96
2019-05-19T04:56:26.956Z,14.07
2019-05-19T04:57:31.377Z,14.10
2019-05-19T04:58:36.355Z,14.06
2019-05-19T04:59:41.885Z,14.04
2019-05-19T05:00:46.954Z,13.95
2019-05-19T05:01:51.371Z,13.96
2019-05-19T05:02:56.697Z,14.06
2019-05-19T05:04:01.228Z,13.98
2019-05-19T05:05:07.519Z,13.92
2019-05-19T05:06:11.944Z,13.93
2019-05-19T05:07:17.212Z,14.02
2019-05-19T05:08:29.749Z,14.17
2019-05-19T05:09:28.432Z,14.14
2019-05-19T05:10:32.853Z,14.17
2019-05-19T05:11:38.236Z,14.36
2019-05-19T05:12:42.958Z,14.39
2019-05-19T05:13:48.275Z,14.43
2019-05-19T05:14:52.999Z,14.64
2019-05-19T05:15:57.981Z,14.89
2019-05-19T05:17:02.468Z,15.07
2019-05-19T05:18:07.509Z,15.23
2019-05-19T05:19:11.930Z,15.38
2019-05-19T05:20:17.353Z,15.59
2019-05-19T05:21:21.766Z,15.71
2019-05-19T05:22:26.775Z,15.78
2019-05-19T05:23:31.555Z,15.88
2019-05-19T05:24:36.539Z,15.94
2019-05-19T05:25:41.974Z,15.84
2019-05-19T05:26:46.949Z,15.98
2019-05-19T05:27:51.416Z,16.15
2019-05-19T05:28:56.461Z,16.22
2019-05-19T05:30:01.416Z,16.32
2019-05-19T05:31:07.715Z,16.30
2019-05-19T05:32:12.204Z,16.15
2019-05-19T05:33:17.271Z,16.15
2019-05-19T05:34:23.129Z,16.19
2019-05-19T05:35:28.115Z,16.25
2019-05-19T05:36:32.531Z,16.41
2019-05-19T05:37:37.549Z,16.37
2019-05-19T05:38:41.962Z,16.31
2019-05-19T05:39:47.281Z,16.48
2019-05-19T05:40:51.707Z,16.68
2019-05-19T05:41:56.685Z,16.70
2019-05-19T05:43:01.156Z,16.74
2019-05-19T05:44:06.113Z,16.88
2019-05-19T05:45:12.016Z,17.01
2019-05-19T05:46:17.006Z,17.05
2019-05-19T05:47:21.422Z,17.20
2019-05-19T05:48:26.422Z,17.21
2019-05-19T05:49:30.854Z,17.20
2019-05-19T05:50:36.144Z,17.27
2019-05-19T05:51:40.564Z,17.33
2019-05-19T05:52:45.565Z,17.33
2019-05-19T05:53:49.987Z,17.49
2019-05-19T05:54:56.357Z,17.52
2019-05-19T05:56:00.774Z,17.60
2019-05-19T05:57:05.866Z,17.80
2019-05-19T05:58:10.297Z,17.86
2019-05-19T05:59:15.279Z,17.88
2019-05-19T06:00:19.847Z,17.86
2019-05-19T06:01:25.164Z,18.10
2019-05-19T06:02:29.661Z,18.15
2019-05-19T06:03:34.655Z,17.90
2019-05-19T06:04:39.077Z,18.15
2019-05-19T06:05:44.053Z,18.27
2019-05-19T06:06:48.853Z,18.28
2019-05-19T06:07:54.208Z,18.31
2019-05-19T06:08:58.646Z,18.40
2019-05-19T06:10:03.705Z,18.63
2019-05-19T06:11:08.147Z,18.77
2019-05-19T06:12:13.187Z,18.59
2019-05-19T06:13:17.629Z,18.60
2019-05-19T06:14:22.605Z,18.82
2019-05-19T06:15:27.026Z,18.77
2019-05-19T06:16:32.006Z,18.94
2019-05-19T06:17:36.430Z,18.67
2019-05-19T06:18:41.457Z,18.67
2019-05-19T06:19:45.847Z,18.70
2019-05-19T06:20:50.831Z,18.77
2019-05-19T06:21:55.249Z,19.06
2019-05-19T06:23:00.252Z,18.82
2019-05-19T06:24:04.770Z,19.23
2019-05-19T06:25:09.893Z,19.51
2019-05-19T06:26:14.384Z,19.58
2019-05-19T06:27:19.352Z,19.72
2019-05-19T06:28:27.702Z,19.87
2019-05-19T06:29:34.785Z,19.62
2019-05-19T06:30:40.270Z,19.90
2019-05-19T06:31:46.135Z,19.95
2019-05-19T06:33:01.801Z,20.07
2019-05-19T06:34:09.908Z,20.20
2019-05-19T06:35:16.133Z,19.93
2019-05-19T06:36:25.651Z,20.02
2019-05-19T06:37:32.966Z,20.02
2019-05-19T06:38:38.121Z,20.06
2019-05-19T06:39:42.517Z,20.05
2019-05-19T06:40:52.941Z,20.27
2019-05-19T06:42:02.332Z,20.27
2019-05-19T06:43:11.147Z,20.44
2019-05-19T06:44:18.745Z,20.48
2019-05-19T06:45:27.091Z,20.27
2019-05-19T06:46:31.933Z,20.44
2019-05-19T06:47:36.988Z,20.55
2019-05-19T06:48:41.436Z,20.48
2019-05-19T06:49:46.479Z,20.45
2019-05-19T06:50:51.871Z,20.41
2019-05-19T06:51:56.841Z,20.39
2019-05-19T06:53:13.713Z,20.59
2019-05-19T06:54:07.950Z,20.84
2019-05-19T06:55:12.814Z,20.70
2019-05-19T06:56:17.862Z,20.75
2019-05-19T06:57:22.281Z,21.04
2019-05-19T06:58:27.278Z,21.08
2019-05-19T06:59:31.698Z,21.11
2019-05-19T07:00:36.675Z,20.90
2019-05-19T07:01:41.376Z,21.06
2019-05-19T07:02:46.640Z,21.26
2019-05-19T07:03:51.091Z,21.34
2019-05-19T07:04:56.056Z,21.26
2019-05-19T07:06:00.470Z,21.47
2019-05-19T07:07:06.330Z,21.63
2019-05-19T07:08:12.306Z,21.75
2019-05-19T07:09:23.498Z,21.97
2019-05-19T07:10:38.223Z,21.73
2019-05-19T07:11:43.338Z,21.58
2019-05-19T07:12:47.744Z,21.73
2019-05-19T07:13:53.008Z,21.60
2019-05-19T07:14:57.435Z,21.34
2019-05-19T07:16:02.397Z,21.36
2019-05-19T07:17:07.183Z,21.30
2019-05-19T07:18:12.207Z,21.43
2019-05-19T07:19:16.640Z,21.73
2019-05-19T07:20:21.610Z,21.80
2019-05-19T07:21:26.024Z,21.97
2019-05-19T07:22:31.324Z,22.01
2019-05-19T07:23:35.732Z,22.26
2019-05-19T07:24:40.720Z,22.33
2019-05-19T07:25:45.136Z,22.50
2019-05-19T07:26:50.170Z,22.56
2019-05-19T07:27:54.579Z,22.60
2019-05-19T07:28:59.564Z,22.65
2019-05-19T07:30:06.258Z,22.78
2019-05-19T07:31:11.233Z,22.67
2019-05-19T07:32:15.950Z,22.44
2019-05-19T07:33:21.274Z,22.56
2019-05-19T07:34:26.759Z,22.66
2019-05-19T07:35:32.005Z,22.58
2019-05-19T07:36:36.434Z,22.77
2019-05-19T07:37:41.602Z,22.48
2019-05-19T07:38:45.993Z,22.36
2019-05-19T07:39:51.251Z,22.29
2019-05-19T07:40:56.633Z,22.37
2019-05-19T07:42:02.639Z,22.18
2019-05-19T07:43:07.414Z,22.06
2019-05-19T07:44:12.401Z,22.28
2019-05-19T07:45:16.940Z,22.44
2019-05-19T07:46:22.138Z,22.62
2019-05-19T07:47:26.551Z,22.52
2019-05-19T07:48:31.511Z,22.70
2019-05-19T07:49:35.998Z,22.87
2019-05-19T07:50:41.038Z,22.70
2019-05-19T07:51:45.656Z,22.71
2019-05-19T07:52:50.910Z,22.64
2019-05-19T07:53:55.391Z,22.98
2019-05-19T07:55:00.375Z,22.90
2019-05-19T07:56:04.930Z,22.89
2019-05-19T07:57:10.194Z,23.11
2019-05-19T07:58:14.958Z,23.25
2019-05-19T07:59:19.945Z,23.29
2019-05-19T08:00:24.527Z,23.15
2019-05-19T08:01:29.825Z,23.22
2019-05-19T08:02:34.512Z,23.06
2019-05-19T08:03:39.638Z,23.15
2019-05-19T08:04:44.089Z,23.11
2019-05-19T08:05:49.365Z,23.21
2019-05-19T08:06:53.919Z,22.90
2019-05-19T08:07:58.893Z,23.07
2019-05-19T08:09:05.076Z,23.02
2019-05-19T08:10:10.901Z,22.86
2019-05-19T08:11:16.347Z,22.99
2019-05-19T08:12:21.328Z,22.93
2019-05-19T08:13:25.870Z,22.99
2019-05-19T08:14:31.130Z,23.28
2019-05-19T08:15:35.889Z,23.46
2019-05-19T08:16:41.834Z,23.38
2019-05-19T08:17:46.276Z,23.42
2019-05-19T08:18:51.289Z,23.47
2019-05-19T08:19:56.106Z,23.49
2019-05-19T08:21:01.350Z,23.71
2019-05-19T08:22:05.831Z,23.81
2019-05-19T08:23:11.110Z,23.36
2019-05-19T08:24:15.519Z,23.29
2019-05-19T08:25:20.655Z,23.41
2019-05-19T08:26:25.402Z,23.61
2019-05-19T08:27:30.371Z,23.68
2019-05-19T08:28:35.954Z,23.44
2019-05-19T08:29:40.900Z,23.43
2019-05-19T08:30:45.462Z,23.26
2019-05-19T08:31:50.436Z,22.96
2019-05-19T08:32:54.841Z,23.29
2019-05-19T08:33:59.982Z,23.28
2019-05-19T08:35:05.756Z,23.40
2019-05-19T08:36:10.718Z,23.44
2019-05-19T08:37:15.245Z,23.57
2019-05-19T08:38:20.847Z,23.10
2019-05-19T08:39:25.557Z,23.17
2019-05-19T08:40:30.614Z,23.22
2019-05-19T08:41:35.897Z,22.79
2019-05-19T08:42:40.941Z,22.73
2019-05-19T08:43:45.358Z,22.99
2019-05-19T08:44:50.347Z,22.98
2019-05-19T08:45:54.761Z,23.24
2019-05-19T08:46:59.737Z,23.21
2019-05-19T08:48:04.553Z,23.34
2019-05-19T08:49:09.502Z,23.15
2019-05-19T08:50:14.075Z,23.25
2019-05-19T08:51:19.372Z,23.35
2019-05-19T08:52:24.192Z,23.31
2019-05-19T08:53:29.299Z,23.37
2019-05-19T08:54:33.717Z,23.04
2019-05-19T08:55:38.777Z,22.62
2019-05-19T08:56:43.193Z,22.54
2019-05-19T08:57:48.181Z,22.37
2019-05-19T08:58:52.587Z,22.55
2019-05-19T08:59:57.578Z,22.76
2019-05-19T09:01:01.991Z,22.94
2019-05-19T09:02:07.032Z,22.83
2019-05-19T09:03:11.514Z,22.77
2019-05-19T09:04:16.825Z,22.54
2019-05-19T09:05:21.561Z,22.65
2019-05-19T09:06:26.535Z,22.85
2019-05-19T09:07:30.947Z,23.12
2019-05-19T09:08:36.050Z,23.25
2019-05-19T09:09:40.468Z,23.13
2019-05-19T09:10:45.649Z,23.29
2019-05-19T09:11:50.047Z,23.13
2019-05-19T09:12:55.291Z,23.57
2019-05-19T09:13:59.711Z,23.09
2019-05-19T09:15:06.238Z,23.45
2019-05-19T09:16:10.647Z,22.97
2019-05-19T09:17:15.634Z,23.25
2019-05-19T09:18:20.069Z,23.24
2019-05-19T09:19:25.025Z,22.83
2019-05-19T09:20:29.455Z,22.96
2019-05-19T09:21:34.484Z,22.76
2019-05-19T09:22:39.186Z,22.82
2019-05-19T09:23:44.157Z,22.69
2019-05-19T09:24:48.571Z,23.09
2019-05-19T09:25:53.581Z,23.53
2019-05-19T09:26:58.000Z,23.93
2019-05-19T09:28:03.116Z,23.84
2019-05-19T09:29:07.585Z,23.73
2019-05-19T09:30:12.833Z,23.95
2019-05-19T09:31:17.241Z,23.77
2019-05-19T09:32:22.209Z,23.95
2019-05-19T09:33:26.906Z,23.77
2019-05-19T09:34:32.163Z,23.26
2019-05-19T09:35:36.948Z,23.47
2019-05-19T09:36:41.922Z,23.75
2019-05-19T09:37:46.394Z,23.85
2019-05-19T09:38:51.368Z,23.63
2019-05-19T09:39:56.058Z,23.80
2019-05-19T09:41:01.058Z,24.13
2019-05-19T09:42:05.676Z,23.90
2019-05-19T09:43:10.928Z,24.14
2019-05-19T09:44:15.419Z,24.40
2019-05-19T09:45:20.839Z,24.41
2019-05-19T09:46:25.346Z,24.42
2019-05-19T09:47:30.417Z,24.75
2019-05-19T09:48:34.910Z,24.16
2019-05-19T09:49:40.351Z,24.69
2019-05-19T09:50:45.157Z,24.46
2019-05-19T09:51:50.250Z,24.26
2019-05-19T09:52:54.763Z,24.61
2019-05-19T09:53:59.734Z,24.32
2019-05-19T09:55:05.408Z,24.60
2019-05-19T09:56:10.450Z,24.98
2019-05-19T09:57:14.872Z,25.26
2019-05-19T09:58:20.290Z,25.08
2019-05-19T09:59:24.861Z,24.73
2019-05-19T10:00:30.167Z,24.60
2019-05-19T10:01:34.933Z,24.89
2019-05-19T10:02:39.969Z,24.45
2019-05-19T10:03:44.459Z,24.86
2019-05-19T10:04:49.517Z,24.29
2019-05-19T10:05:53.942Z,24.64
2019-05-19T10:06:59.190Z,24.42
2019-05-19T10:08:03.771Z,24.87
2019-05-19T10:09:11.266Z,24.68
2019-05-19T10:10:20.346Z,24.02
2019-05-19T10:11:47.451Z,23.99
2019-05-19T10:12:51.993Z,24.45
2019-05-19T10:13:57.050Z,24.72
2019-05-19T10:15:02.781Z,24.51
2019-05-19T10:16:09.179Z,24.66
2019-05-19T10:17:13.733Z,24.02
2019-05-19T10:18:18.984Z,24.03
2019-05-19T10:19:23.743Z,24.67
2019-05-19T10:20:28.738Z,24.79
2019-05-19T10:21:33.306Z,24.87
2019-05-19T10:22:38.271Z,24.70
2019-05-19T10:23:42.754Z,24.59
2019-05-19T10:25:03.694Z,24.89
2019-05-19T10:25:53.931Z,25.32
2019-05-19T10:27:00.236Z,24.70
2019-05-19T10:28:04.927Z,24.56
2019-05-19T10:29:09.964Z,25.13
2019-05-19T10:30:14.923Z,25.18
2019-05-19T10:31:19.961Z,24.91
2019-05-19T10:32:24.522Z,24.74
2019-05-19T10:33:29.490Z,24.88
2019-05-19T10:34:33.975Z,24.21
2019-05-19T10:35:39.366Z,24.02
2019-05-19T10:36:43.940Z,23.76
2019-05-19T10:37:49.394Z,24.27
2019-05-19T10:38:54.206Z,24.41
2019-05-19T10:39:59.170Z,24.43
2019-05-19T10:41:03.948Z,24.55
2019-05-19T10:42:09.422Z,24.32
2019-05-19T10:43:13.831Z,24.78
2019-05-19T10:44:19.122Z,24.60
2019-05-19T10:45:23.622Z,24.67
2019-05-19T10:46:29.545Z,24.63
2019-05-19T10:47:34.303Z,24.87
2019-05-19T10:48:39.341Z,24.36
2019-05-19T10:49:43.759Z,24.68
2019-05-19T10:50:48.725Z,24.93
2019-05-19T10:51:53.793Z,25.23
2019-05-19T10:52:59.223Z,25.38
2019-05-19T10:54:03.772Z,25.21
2019-05-19T10:55:09.084Z,25.53
2019-05-19T10:56:13.554Z,25.58
2019-05-19T10:57:18.616Z,25.73
2019-05-19T10:58:23.032Z,24.83
2019-05-19T10:59:28.006Z,24.97
2019-05-19T11:00:32.611Z,25.24
2019-05-19T11:01:38.088Z,25.47
2019-05-19T11:02:42.902Z,24.76
2019-05-19T11:03:47.873Z,24.59
2019-05-19T11:04:52.281Z,24.56
2019-05-19T11:05:57.249Z,24.98
2019-05-19T11:07:01.660Z,25.31
2019-05-19T11:08:06.658Z,25.07
2019-05-19T11:09:11.139Z,25.02
2019-05-19T11:10:16.316Z,25.49
2019-05-19T11:11:20.744Z,25.85
2019-05-19T11:12:25.724Z,25.71
2019-05-19T11:13:30.216Z,25.90
2019-05-19T11:14:35.153Z,25.53
2019-05-19T11:15:39.629Z,25.79
2019-05-19T11:16:44.618Z,25.43
2019-05-19T11:17:49.118Z,25.11
2019-05-19T11:18:54.085Z,25.36
2019-05-19T11:19:58.507Z,25.85
2019-05-19T11:21:03.550Z,25.78
2019-05-19T11:22:07.987Z,25.70
2019-05-19T11:23:12.981Z,25.74
2019-05-19T11:24:17.463Z,24.94
2019-05-19T11:25:33.321Z,24.89
2019-05-19T11:26:29.046Z,25.11
2019-05-19T11:27:34.474Z,25.48
2019-05-19T11:28:38.902Z,26.00
2019-05-19T11:29:43.873Z,26.36
2019-05-19T11:30:49.423Z,25.89
2019-05-19T11:31:54.400Z,25.48
2019-05-19T11:32:58.901Z,25.91
2019-05-19T11:34:03.870Z,26.02
2019-05-19T11:35:08.620Z,26.60
2019-05-19T11:36:13.596Z,26.37
2019-05-19T11:37:17.997Z,25.75
2019-05-19T11:38:22.977Z,25.50
2019-05-19T11:39:27.397Z,25.94
2019-05-19T11:40:32.380Z,25.77
2019-05-19T11:41:36.777Z,25.91
2019-05-19T11:42:41.861Z,25.26
2019-05-19T11:43:47.695Z,25.62
2019-05-19T11:44:52.740Z,25.20
2019-05-19T11:45:57.152Z,25.55
2019-05-19T11:47:02.127Z,25.30
2019-05-19T11:48:06.559Z,25.75
2019-05-19T11:49:11.601Z,25.74
2019-05-19T11:50:16.150Z,26.12
2019-05-19T11:51:21.189Z,25.96
2019-05-19T11:52:25.602Z,26.17
2019-05-19T11:53:30.602Z,26.37
2019-05-19T11:54:35.006Z,25.81
2019-05-19T11:55:40.303Z,25.47
2019-05-19T11:56:44.743Z,25.46
2019-05-19T11:57:50.146Z,25.95
2019-05-19T11:58:54.966Z,26.33
2019-05-19T12:00:00.024Z,26.50
2019-05-19T12:01:04.942Z,26.18
2019-05-19T12:02:09.911Z,26.46
2019-05-19T12:03:14.420Z,26.51
2019-05-19T12:04:19.459Z,27.07
2019-05-19T12:05:23.974Z,26.77
2019-05-19T12:06:38.710Z,26.53
2019-05-19T12:07:35.348Z,26.55
2019-05-19T12:08:40.470Z,26.91
2019-05-19T12:09:45.145Z,26.98
2019-05-19T12:10:50.262Z,25.74
2019-05-19T12:11:54.735Z,26.18
2019-05-19T12:12:59.729Z,26.34
2019-05-19T12:14:04.205Z,25.71
2019-05-19T12:15:09.815Z,26.00
2019-05-19T12:16:14.230Z,25.79
2019-05-19T12:17:19.564Z,26.09
2019-05-19T12:18:23.998Z,26.19
2019-05-19T12:19:28.969Z,26.93
2019-05-19T12:20:33.467Z,27.13
2019-05-19T12:21:38.770Z,26.58
2019-05-19T12:22:43.189Z,26.66
2019-05-19T12:23:48.180Z,26.58
2019-05-19T12:24:54.029Z,26.15
2019-05-19T12:25:59.075Z,26.26
2019-05-19T12:27:03.465Z,25.79
2019-05-19T12:28:08.583Z,25.06
2019-05-19T12:29:13.307Z,24.75
2019-05-19T12:30:20.828Z,24.16
2019-05-19T12:31:25.308Z,24.37
2019-05-19T12:32:30.377Z,24.72
2019-05-19T12:33:34.880Z,25.20
2019-05-19T12:34:39.929Z,25.70
2019-05-19T12:35:44.416Z,25.18
2019-05-19T12:36:49.397Z,25.33
2019-05-19T12:37:54.113Z,25.71
2019-05-19T12:38:59.099Z,25.48
2019-05-19T12:40:04.573Z,25.48
2019-05-19T12:41:09.907Z,25.42
2019-05-19T12:42:14.600Z,25.35
2019-05-19T12:43:19.676Z,24.93
2019-05-19T12:44:24.084Z,25.21
2019-05-19T12:45:30.245Z,25.23
2019-05-19T12:46:34.783Z,24.96
2019-05-19T12:47:39.899Z,25.16
2019-05-19T12:48:44.396Z,25.42
2019-05-19T12:49:49.376Z,25.94
2019-05-19T12:50:54.995Z,25.69
2019-05-19T12:52:00.039Z,25.18
2019-05-19T12:53:04.457Z,25.44
2019-05-19T12:54:09.473Z,25.50
2019-05-19T12:55:14.232Z,25.63
2019-05-19T12:56:19.338Z,25.59
2019-05-19T12:57:23.766Z,26.15
2019-05-19T12:58:28.737Z,26.38
2019-05-19T12:59:33.474Z,26.32
2019-05-19T13:00:38.513Z,26.85
2019-05-19T13:01:42.992Z,25.45
2019-05-19T13:02:48.049Z,24.20
2019-05-19T13:03:52.861Z,24.30
2019-05-19T13:05:04.869Z,24.08
2019-05-19T13:06:04.021Z,23.95
2019-05-19T13:07:09.081Z,23.56
2019-05-19T13:08:13.557Z,23.25
2019-05-19T13:09:18.900Z,23.16
2019-05-19T13:10:23.618Z,23.21
2019-05-19T13:11:28.663Z,23.37
2019-05-19T13:12:33.104Z,23.44
2019-05-19T13:13:38.069Z,23.73
2019-05-19T13:14:42.499Z,24.06
2019-05-19T13:15:47.457Z,23.45
2019-05-19T13:16:51.883Z,23.05
2019-05-19T13:17:56.849Z,22.94
2019-05-19T13:19:01.286Z,22.97
2019-05-19T13:20:06.422Z,23.05
2019-05-19T13:21:10.878Z,23.86
2019-05-19T13:22:15.837Z,24.11
2019-05-19T13:23:20.244Z,23.76
2019-05-19T13:24:25.236Z,23.96
2019-05-19T13:25:31.240Z,24.28
2019-05-19T13:26:36.224Z,24.36
2019-05-19T13:27:40.902Z,24.68
2019-05-19T13:28:45.879Z,24.76
2019-05-19T13:29:50.372Z,24.68
2019-05-19T13:30:55.339Z,24.38
2019-05-19T13:31:59.808Z,24.85
2019-05-19T13:33:05.186Z,25.03
2019-05-19T13:34:09.685Z,24.39
2019-05-19T13:35:15.024Z,24.26
2019-05-19T13:36:19.565Z,24.19
2019-05-19T13:37:24.529Z,23.62
2019-05-19T13:38:28.934Z,23.84
2019-05-19T13:39:33.921Z,23.93
2019-05-19T13:40:38.336Z,23.10
2019-05-19T13:41:43.372Z,22.68
2019-05-19T13:42:48.137Z,22.75
2019-05-19T13:43:53.162Z,23.03
2019-05-19T13:44:57.848Z,23.17
2019-05-19T13:46:03.185Z,22.98
2019-05-19T13:48:11.698Z,22.89
2019-05-19T13:49:16.314Z,23.45
2019-05-19T13:50:21.159Z,23.33
2019-05-19T13:51:26.065Z,23.23
2019-05-19T13:52:30.852Z,23.55
2019-05-19T13:53:35.522Z,23.54
2019-05-19T13:54:40.344Z,23.67
2019-05-19T13:55:44.939Z,23.52
2019-05-19T13:56:49.732Z,23.24
2019-05-19T13:57:54.397Z,23.93
2019-05-19T13:58:59.172Z,23.81
2019-05-19T14:00:04.227Z,23.77